Time;durP1;ratioP1;P1;durP2;ratioP2;P2;SDS_P1;SDS_P2;PMS_P1;PMS_P2;Temp;Humidity;BMP_temperature;BMP_pressure;BME280_temperature;BME280_humidity;BME280_pressure;Samples;Min_cycle;Max_cycle;Signal;HPM_P1;HPM_P2
2022/10/09 12:35:08;;;;;;;29.70;27.97;;;;;;;14.86;59.54;97144.88;5102567;27;20548;-54
2022/10/09 12:37:35;;;;;;;25.90;24.43;;;;;;;15.05;59.17;97144.53;5077447;28;20177;-57
2022/10/09 12:40:16;;;;;;;28.77;26.93;;;;;;;14.87;59.20;97146.47;5088086;28;20637;-67
2022/10/09 12:42:42;;;;;;;38.90;36.83;;;;;;;14.55;59.56;97135.72;5070217;28;20216;-54
2022/10/09 12:45:18;;;;;;;59.47;56.17;;;;;;;14.70;59.71;97131.72;5088387;28;20212;-51
2022/10/09 12:47:44;;;;;;;39.57;37.23;;;;;;;14.82;59.74;97141.09;5089580;28;20195;-53
2022/10/09 12:50:15;;;;;;;49.23;46.43;;;;;;;14.42;59.74;97136.09;5071450;28;20212;-52
2022/10/09 12:52:49;;;;;;;91.70;86.27;;;;;;;14.67;59.42;97134.81;5069490;28;20177;-51
2022/10/09 12:55:31;;;;;;;80.07;75.77;;;;;;;14.77;59.10;97127.03;5070225;28;20217;-51
2022/10/09 12:58:12;;;;;;;75.93;71.83;;;;;;;14.67;58.51;97126.91;5070979;28;20182;-53
2022/10/09 13:00:39;;;;;;;115.67;109.43;;;;;;;14.97;59.39;97119.38;5069854;28;20177;-52
2022/10/09 13:03:04;;;;;;;103.93;98.30;;;;;;;14.95;59.41;97113.53;5069856;28;20184;-51
2022/10/09 13:05:41;;;;;;;74.03;69.77;;;;;;;15.06;58.93;97117.09;5085949;28;20201;-53
2022/10/09 13:08:22;;;;;;;106.27;99.60;;;;;;;14.93;59.38;97118.28;5088264;28;20195;-52
2022/10/09 13:10:47;;;;;;;51.23;48.27;;;;;;;15.04;59.01;97106.00;5089616;28;20247;-53
2022/10/09 13:13:21;;;;;;;72.70;68.93;;;;;;;15.25;58.97;97107.81;5089079;28;20689;-52
2022/10/09 13:16:01;;;;;;;77.73;73.50;;;;;;;15.28;58.97;97099.38;5070452;28;20255;-54
2022/10/09 13:18:26;;;;;;;31.43;29.53;;;;;;;15.46;58.62;97101.69;5068872;28;20651;-51
2022/10/09 13:21:23;;;;;;;22.33;20.63;;;;;;;15.33;57.78;97096.81;5069401;28;20177;-50
2022/10/09 13:23:49;;;;;;;56.43;53.43;;;;;;;15.04;58.21;97100.72;5070134;28;20198;-50
2022/10/09 13:26:29;;;;;;;53.33;50.23;;;;;;;15.08;58.37;97093.91;5085368;28;20696;-51
2022/10/09 13:28:57;;;;;;;45.10;42.60;;;;;;;15.12;58.92;97081.78;5070046;28;20195;-55
2022/10/09 13:31:22;;;;;;;40.67;38.47;;;;;;;15.01;59.26;97088.00;5068755;28;20185;-52
2022/10/09 13:33:48;;;;;;;65.10;61.57;;;;;;;15.06;59.18;97078.31;5088843;28;20240;-56
2022/10/09 13:36:15;;;;;;;51.97;49.07;;;;;;;15.11;59.24;97078.34;5110542;28;20198;-55
2022/10/09 13:38:41;;;;;;;42.33;40.10;;;;;;;14.90;59.74;97074.69;5094328;28;20236;-51
2022/10/09 13:41:20;;;;;;;72.03;68.17;;;;;;;15.14;60.33;97067.31;5089037;28;20177;-52
2022/10/09 13:43:47;;;;;;;71.13;67.33;;;;;;;15.05;59.92;97062.69;5089159;28;20660;-48
2022/10/09 13:46:12;;;;;;;64.67;61.13;;;;;;;14.85;60.52;97063.28;5096339;28;20200;-49
2022/10/09 13:48:38;;;;;;;75.37;71.23;;;;;;;14.77;60.44;97069.78;5095241;28;20265;-52
2022/10/09 13:51:05;;;;;;;80.47;75.97;;;;;;;14.73;60.89;97065.25;5093288;28;20175;-50
2022/10/09 13:53:30;;;;;;;83.43;78.93;;;;;;;14.68;61.41;97059.91;5095247;28;20275;-50
2022/10/09 13:55:56;;;;;;;59.53;56.03;;;;;;;14.72;61.30;97053.88;5088826;28;20289;-50
2022/10/09 13:58:21;;;;;;;40.47;38.20;;;;;;;14.77;61.09;97050.50;5094951;28;20305;-54
2022/10/09 14:00:47;;;;;;;64.00;60.43;;;;;;;14.62;60.83;97051.13;5092771;28;20177;-52
2022/10/09 14:03:12;;;;;;;48.07;45.47;;;;;;;14.77;61.44;97047.88;5078856;28;20180;-54
2022/10/09 14:05:39;;;;;;;64.43;60.87;;;;;;;14.47;62.03;97043.03;5094028;28;20205;-55
2022/10/09 14:08:05;;;;;;;24.63;23.20;;;;;;;14.50;62.37;97034.63;5095082;28;20181;-55
2022/10/09 14:10:31;;;;;;;25.83;24.40;;;;;;;14.47;62.11;97040.41;5080247;28;20192;-54
2022/10/09 14:12:56;;;;;;;8.83;8.37;;;;;;;14.58;62.53;97036.84;5094310;28;20200;-56
2022/10/09 14:15:22;;;;;;;10.07;9.43;;;;;;;14.53;62.61;97027.03;5076391;28;20683;-53
2022/10/09 14:17:47;;;;;;;15.73;14.57;;;;;;;14.47;62.46;97027.22;5094616;28;20169;-51
2022/10/09 14:20:13;;;;;;;21.90;20.50;;;;;;;14.70;62.90;97028.81;5105196;28;20194;-56
2022/10/09 14:22:38;;;;;;;17.27;16.13;;;;;;;14.68;61.64;97028.25;5096381;28;20588;-56
2022/10/09 14:25:04;;;;;;;10.03;9.30;;;;;;;14.72;62.20;97016.94;5092563;28;20218;-53
2022/10/09 14:27:29;;;;;;;18.13;16.93;;;;;;;14.72;61.89;97021.44;5083010;28;20250;-54
2022/10/09 14:29:55;;;;;;;20.53;19.37;;;;;;;14.86;62.82;97015.53;5074290;28;20193;-57
2022/10/09 14:32:20;;;;;;;16.53;15.67;;;;;;;14.59;63.05;97017.34;5089234;28;20184;-53
2022/10/09 14:34:45;;;;;;;27.30;25.87;;;;;;;14.72;63.48;97006.41;5076190;28;20233;-53
2022/10/09 14:37:12;;;;;;;29.73;28.20;;;;;;;14.73;63.17;97013.28;5093451;28;20264;-56
2022/10/09 14:39:37;;;;;;;32.20;30.57;;;;;;;14.77;63.48;97008.28;5088139;28;20177;-54
2022/10/09 14:42:03;;;;;;;29.57;27.93;;;;;;;14.76;63.92;97012.78;5086211;28;20192;-57
2022/10/09 14:44:28;;;;;;;30.10;28.30;;;;;;;14.82;63.57;97006.50;5094528;28;20180;-55
2022/10/09 14:46:53;;;;;;;26.40;24.93;;;;;;;14.81;64.06;97004.94;5075913;28;20243;-53
2022/10/09 14:49:20;;;;;;;24.83;23.43;;;;;;;14.79;64.45;97003.56;5093015;28;20184;-52
2022/10/09 14:51:46;;;;;;;19.00;17.63;;;;;;;14.82;65.07;97003.09;5074488;28;20183;-53
2022/10/09 14:54:11;;;;;;;15.53;14.43;;;;;;;14.79;65.39;97001.72;5073918;28;20280;-54
2022/10/09 14:56:37;;;;;;;16.67;15.67;;;;;;;14.65;65.49;96997.91;5072944;28;20200;-55
2022/10/09 14:59:05;;;;;;;15.80;14.77;;;;;;;14.50;66.52;96993.22;5073376;28;20599;-51
2022/10/09 15:01:31;;;;;;;21.10;19.83;;;;;;;14.49;66.96;96988.97;5091666;28;20173;-57
2022/10/09 15:03:58;;;;;;;14.33;13.27;;;;;;;14.53;67.53;96984.03;5093561;28;20185;-54
2022/10/09 15:06:24;;;;;;;16.90;15.90;;;;;;;14.55;67.87;96976.66;5085456;28;20247;-52
2022/10/09 15:08:53;;;;;;;35.03;33.07;;;;;;;14.41;68.70;96970.97;5084389;28;20177;-56
2022/10/09 15:11:18;;;;;;;70.00;66.00;;;;;;;14.42;69.53;96969.94;5077368;28;20183;-54
2022/10/09 15:13:44;;;;;;;50.00;47.10;;;;;;;14.33;70.73;96971.34;5074030;28;20295;-53
2022/10/09 15:16:15;;;;;;;25.87;24.30;;;;;;;14.23;71.49;96975.72;5093382;28;20200;-54
2022/10/09 15:18:41;;;;;;;15.30;14.07;;;;;;;14.31;72.18;96968.19;5093844;28;20169;-56
2022/10/09 15:21:34;;;;;;;19.23;18.10;;;;;;;14.03;73.87;96969.16;5078476;28;20185;-51
2022/10/09 15:24:01;;;;;;;14.63;13.60;;;;;;;14.07;74.02;96962.34;5073349;28;21010;-58
2022/10/09 15:26:29;;;;;;;11.77;10.90;;;;;;;14.23;74.40;96970.44;5092632;28;20716;-54
2022/10/09 15:28:54;;;;;;;16.47;15.37;;;;;;;14.20;74.87;96973.56;5092855;28;20212;-57
2022/10/09 15:31:24;;;;;;;18.13;17.13;;;;;;;14.21;75.37;96962.75;5077168;28;20216;-55
2022/10/09 15:33:52;;;;;;;25.77;24.27;;;;;;;14.05;76.14;96968.88;5063383;28;20232;-56
2022/10/09 15:36:21;;;;;;;32.87;30.87;;;;;;;14.02;77.20;96954.38;5092842;28;20611;-54
2022/10/09 15:38:47;;;;;;;18.07;16.90;;;;;;;14.04;77.73;96954.91;5092591;28;20173;-59
2022/10/09 15:41:23;;;;;;;8.97;8.27;;;;;;;14.03;77.98;96950.69;5090790;28;20169;-57
2022/10/09 15:43:51;;;;;;;8.80;8.03;;;;;;;13.95;78.60;96952.94;5092877;28;20217;-57
2022/10/09 15:46:17;;;;;;;16.47;15.33;;;;;;;13.89;79.53;96946.81;5092616;28;20208;-54
2022/10/09 15:48:43;;;;;;;9.37;8.53;;;;;;;13.82;80.60;96951.44;5079803;28;20260;-59
2022/10/09 15:51:12;;;;;;;28.27;26.37;;;;;;;13.84;80.65;96945.94;5091579;28;20184;-58
2022/10/09 15:53:40;;;;;;;11.07;10.23;;;;;;;13.86;81.17;96944.66;5073141;28;20194;-57
2022/10/09 15:56:05;;;;;;;8.73;7.87;;;;;;;13.83;81.66;96933.81;5079427;28;20297;-55
2022/10/09 15:58:31;;;;;;;9.83;9.13;;;;;;;13.82;82.17;96934.88;5092635;28;20208;-59
2022/10/09 16:01:03;;;;;;;19.10;17.93;;;;;;;13.79;82.70;96932.69;5092565;28;20184;-57
2022/10/09 16:03:29;;;;;;;21.70;20.43;;;;;;;13.51;84.52;96931.00;5090575;28;20267;-58
2022/10/09 16:05:58;;;;;;;12.40;11.50;;;;;;;13.59;84.84;96933.22;5074080;28;20353;-51
2022/10/09 16:08:24;;;;;;;10.70;9.83;;;;;;;13.44;85.83;96920.63;5072541;28;20173;-53
2022/10/09 16:10:50;;;;;;;14.33;13.37;;;;;;;13.46;86.28;96928.28;5055664;28;20624;-51
2022/10/09 16:13:17;;;;;;;23.13;21.63;;;;;;;13.32;87.37;96927.78;5072794;28;20224;-54
2022/10/09 16:15:46;;;;;;;18.27;16.83;;;;;;;13.30;87.85;96924.63;5077052;28;20691;-55
2022/10/09 16:18:12;;;;;;;28.23;26.53;;;;;;;13.25;88.63;96933.25;5092404;28;20184;-56
2022/10/09 16:20:39;;;;;;;27.53;25.73;;;;;;;13.44;87.99;96928.50;5092322;28;20189;-57
2022/10/09 16:23:06;;;;;;;29.07;27.23;;;;;;;13.24;89.43;96926.38;5090551;28;20594;-57
2022/10/09 16:25:32;;;;;;;12.17;11.27;;;;;;;13.23;89.78;96923.97;5081272;28;20209;-54
2022/10/09 16:27:57;;;;;;;7.50;6.83;;;;;;;13.18;90.43;96913.38;5073395;28;20215;-52
2022/10/09 16:30:24;;;;;;;9.57;8.87;;;;;;;13.14;91.18;96920.97;5072444;28;20192;-56
2022/10/09 16:32:49;;;;;;;10.67;9.53;;;;;;;13.05;91.95;96919.72;5072691;28;20301;-58
2022/10/09 16:35:15;;;;;;;22.60;21.23;;;;;;;13.04;92.44;96919.97;5085978;28;20205;-57
2022/10/09 16:37:40;;;;;;;49.07;46.37;;;;;;;13.03;92.49;96916.53;5080586;28;20177;-61
2022/10/09 16:40:06;;;;;;;44.03;41.33;;;;;;;12.99;93.34;96920.66;5087251;28;20165;-55
2022/10/09 16:42:32;;;;;;;19.80;18.60;;;;;;;12.84;94.30;96926.47;5090494;28;20634;-56
2022/10/09 16:45:01;;;;;;;10.17;9.37;;;;;;;12.87;94.53;96919.97;5090882;28;20652;-56
2022/10/09 16:47:27;;;;;;;7.93;7.17;;;;;;;12.90;94.83;96919.47;5072759;28;20169;-56
2022/10/09 16:49:52;;;;;;;10.43;9.37;;;;;;;12.89;94.60;96925.75;5072721;28;20187;-56
2022/10/09 16:52:18;;;;;;;9.43;8.73;;;;;;;12.91;94.93;96915.81;5072322;28;20264;-52
2022/10/09 16:54:43;;;;;;;10.63;9.80;;;;;;;12.67;96.29;96923.03;5089776;28;20617;-55
2022/10/09 16:57:09;;;;;;;10.00;9.13;;;;;;;12.62;97.59;96922.13;5085840;28;20668;-57
2022/10/09 16:59:34;;;;;;;9.97;9.27;;;;;;;12.46;98.43;96919.22;5072426;28;20646;-56
2022/10/09 17:02:02;;;;;;;11.33;9.63;;;;;;;12.45;98.97;96924.72;5072373;28;20645;-58
2022/10/09 17:04:28;;;;;;;10.07;9.07;;;;;;;12.54;98.85;96922.53;5076107;28;20173;-57
2022/10/09 17:06:53;;;;;;;12.00;11.00;;;;;;;12.44;99.39;96925.75;5078051;28;20284;-55
2022/10/09 17:09:19;;;;;;;14.03;12.87;;;;;;;12.46;99.43;96932.38;5071905;28;20538;-57
2022/10/09 17:11:45;;;;;;;15.87;14.77;;;;;;;12.45;99.67;96932.59;5089814;28;20176;-57
2022/10/09 17:14:11;;;;;;;15.30;14.10;;;;;;;12.30;100.00;96934.94;5072127;28;20681;-57
2022/10/09 17:16:38;;;;;;;14.07;12.87;;;;;;;12.35;100.00;96935.03;5085702;28;20215;-58
2022/10/09 17:19:04;;;;;;;15.63;14.40;;;;;;;12.38;100.00;96935.34;5092317;28;20179;-63
2022/10/09 17:21:31;;;;;;;9.73;8.80;;;;;;;12.25;100.00;96938.28;5092850;28;20637;-59
2022/10/09 17:23:58;;;;;;;9.00;8.20;;;;;;;12.19;100.00;96928.69;5058577;28;20192;-59
2022/10/09 17:26:25;;;;;;;8.97;8.30;;;;;;;12.15;100.00;96932.78;5082576;28;20197;-53
2022/10/09 17:28:51;;;;;;;11.20;10.30;;;;;;;12.16;100.00;96928.34;5075321;28;20212;-57
2022/10/09 17:31:20;;;;;;;13.93;11.97;;;;;;;12.20;100.00;96938.19;5090547;28;20187;-56
2022/10/09 17:33:47;;;;;;;13.07;11.10;;;;;;;12.12;100.00;96935.91;5090220;28;20327;-58
2022/10/09 17:36:16;;;;;;;11.80;10.90;;;;;;;12.09;100.00;96928.50;5084689;28;20204;-54
2022/10/09 17:38:43;;;;;;;10.17;9.47;;;;;;;11.99;100.00;96929.06;5095668;28;20184;-52
2022/10/09 17:41:10;;;;;;;12.63;8.90;;;;;;;11.97;100.00;96932.97;5081885;28;20187;-55
2022/10/09 17:43:36;;;;;;;11.37;9.70;;;;;;;11.96;100.00;96931.38;5075789;28;20177;-58
2022/10/09 17:46:03;;;;;;;18.43;16.90;;;;;;;11.89;100.00;96928.88;5095121;28;20215;-55
2022/10/09 17:48:31;;;;;;;24.03;22.53;;;;;;;11.95;100.00;96935.03;5095375;28;20169;-56
2022/10/09 17:50:57;;;;;;;26.33;24.47;;;;;;;11.93;100.00;96924.75;5083513;28;20181;-58
2022/10/09 17:53:23;;;;;;;26.13;24.67;;;;;;;11.89;100.00;96935.94;5086120;28;20199;-57
2022/10/09 17:55:53;;;;;;;22.47;20.87;;;;;;;11.71;100.00;96934.22;5094461;28;20204;-60
2022/10/09 17:58:20;;;;;;;28.77;26.70;;;;;;;11.67;100.00;96935.72;5093378;28;20180;-58
2022/10/09 18:00:47;;;;;;;37.17;34.90;;;;;;;11.77;100.00;96930.69;5094047;28;20169;-55
2022/10/09 18:03:13;;;;;;;46.03;43.03;;;;;;;11.66;100.00;96920.97;5094687;28;20180;-59
2022/10/09 18:05:40;;;;;;;36.73;34.50;;;;;;;11.71;100.00;96922.91;5089466;28;20208;-56
2022/10/09 18:08:05;;;;;;;29.83;27.67;;;;;;;11.80;100.00;96926.84;5075482;28;20176;-56
2022/10/09 18:10:31;;;;;;;23.53;22.00;;;;;;;11.72;100.00;96921.88;5081687;28;20169;-53
2022/10/09 18:12:56;;;;;;;18.93;17.67;;;;;;;11.67;100.00;96920.75;5095034;28;20180;-55
2022/10/09 18:15:22;;;;;;;14.87;13.57;;;;;;;11.63;100.00;96924.88;5083246;28;20642;-58
2022/10/09 18:17:48;;;;;;;12.17;11.27;;;;;;;11.65;100.00;96922.81;5075958;28;20215;-56
2022/10/09 18:20:13;;;;;;;12.90;11.70;;;;;;;11.73;100.00;96913.81;5094079;28;20214;-58
2022/10/09 18:22:38;;;;;;;12.00;11.07;;;;;;;11.66;100.00;96918.34;5094476;28;20172;-54
2022/10/09 18:25:04;;;;;;;18.87;17.60;;;;;;;11.67;100.00;96917.31;5093926;28;20196;-60
2022/10/09 18:27:30;;;;;;;24.83;22.93;;;;;;;11.66;100.00;96907.84;5074683;28;20197;-56
2022/10/09 18:29:55;;;;;;;28.10;26.30;;;;;;;11.61;100.00;96905.91;5090723;28;20187;-58
2022/10/09 18:32:21;;;;;;;24.30;22.53;;;;;;;11.61;100.00;96910.38;5094147;28;20215;-58
2022/10/09 18:34:46;;;;;;;25.90;24.03;;;;;;;11.58;100.00;96908.22;5084856;28;20232;-58
2022/10/09 18:37:12;;;;;;;21.13;19.83;;;;;;;11.51;100.00;96912.78;5091931;28;20188;-58
2022/10/09 18:39:37;;;;;;;20.87;19.57;;;;;;;11.50;100.00;96908.56;5094653;28;20180;-56
2022/10/09 18:42:03;;;;;;;18.93;17.67;;;;;;;11.49;100.00;96909.56;5092953;28;20529;-58
2022/10/09 18:44:32;;;;;;;17.87;16.57;;;;;;;11.32;100.00;96906.84;5074275;28;20181;-57
2022/10/09 18:46:59;;;;;;;20.30;18.67;;;;;;;11.36;100.00;96904.56;5088888;28;20587;-52
2022/10/09 18:49:28;;;;;;;19.07;17.73;;;;;;;11.43;100.00;96908.66;5094249;28;20219;-61
2022/10/09 18:51:55;;;;;;;19.20;17.80;;;;;;;11.38;100.00;96903.28;5077863;28;20242;-57
2022/10/09 18:54:24;;;;;;;20.37;19.03;;;;;;;11.47;100.00;96903.78;5073919;28;20278;-56
2022/10/09 18:56:50;;;;;;;20.20;17.53;;;;;;;11.35;100.00;96901.16;5074795;28;20202;-54
2022/10/09 18:59:19;;;;;;;18.60;17.20;;;;;;;11.40;100.00;96897.84;5073640;28;20174;-57
2022/10/09 19:01:45;;;;;;;21.47;19.77;;;;;;;11.40;100.00;96893.38;5074767;28;20185;-57
2022/10/09 19:04:10;;;;;;;19.67;18.47;;;;;;;11.39;100.00;96885.72;5073611;28;20173;-56
2022/10/09 19:06:36;;;;;;;21.23;19.30;;;;;;;11.39;100.00;96889.16;5090469;28;20208;-56
2022/10/09 19:09:02;;;;;;;19.10;17.70;;;;;;;11.43;100.00;96887.66;5093724;28;20191;-57
2022/10/09 19:11:29;;;;;;;16.83;15.63;;;;;;;11.42;100.00;96893.97;5092757;28;20629;-57
2022/10/09 19:13:55;;;;;;;16.23;14.83;;;;;;;11.32;100.00;96888.47;5090479;28;20208;-56
2022/10/09 19:16:21;;;;;;;15.17;14.00;;;;;;;11.28;100.00;96884.72;5074255;28;20211;-57
2022/10/09 19:18:46;;;;;;;13.27;12.20;;;;;;;11.23;100.00;96889.84;5092401;28;20169;-56
2022/10/09 19:21:13;;;;;;;14.27;13.03;;;;;;;11.24;100.00;96892.25;5092473;28;20571;-59
2022/10/09 19:23:39;;;;;;;13.10;12.00;;;;;;;11.27;100.00;96888.34;5090075;28;20281;-59
2022/10/09 19:26:04;;;;;;;13.73;12.80;;;;;;;11.26;100.00;96892.00;5076632;28;20674;-59
2022/10/09 19:28:31;;;;;;;13.40;12.40;;;;;;;11.11;100.00;96891.66;5091924;28;20204;-59
2022/10/09 19:30:58;;;;;;;12.30;11.27;;;;;;;11.21;100.00;96889.25;5088711;28;20652;-58
2022/10/09 19:33:24;;;;;;;12.37;11.27;;;;;;;11.16;100.00;96889.16;5089651;28;20240;-58
2022/10/09 19:35:51;;;;;;;12.70;11.60;;;;;;;11.06;100.00;96886.28;5075814;28;20224;-59
2022/10/09 19:38:17;;;;;;;12.67;11.60;;;;;;;11.06;100.00;96889.72;5093032;28;20180;-59
2022/10/09 19:40:43;;;;;;;13.77;12.63;;;;;;;11.14;100.00;96883.34;5092599;28;20541;-58
2022/10/09 19:43:09;;;;;;;13.40;12.30;;;;;;;11.09;100.00;96884.00;5091883;28;20610;-59
2022/10/09 19:45:34;;;;;;;13.83;12.93;;;;;;;11.04;100.00;96886.50;5090787;28;20200;-59
2022/10/09 19:48:02;;;;;;;15.90;14.63;;;;;;;11.07;100.00;96880.81;5092165;28;20180;-57
2022/10/09 19:50:28;;;;;;;16.97;15.57;;;;;;;11.12;100.00;96880.94;5092364;28;20172;-58
2022/10/09 19:52:54;;;;;;;16.93;15.63;;;;;;;11.08;100.00;96882.44;5082666;28;20211;-56
2022/10/09 19:55:19;;;;;;;16.23;14.70;;;;;;;11.06;100.00;96881.84;5075616;28;20200;-59
2022/10/09 19:57:45;;;;;;;16.87;15.70;;;;;;;10.92;100.00;96882.28;5092409;28;20644;-58
2022/10/09 20:00:11;;;;;;;17.33;16.07;;;;;;;10.78;100.00;96882.50;5092634;28;20257;-58
2022/10/09 20:02:36;;;;;;;16.83;15.43;;;;;;;10.84;100.00;96878.97;5092220;28;20168;-57
2022/10/09 20:05:03;;;;;;;16.47;15.33;;;;;;;11.00;100.00;96879.31;5090698;28;20208;-57
2022/10/09 20:07:29;;;;;;;15.77;14.53;;;;;;;11.05;100.00;96880.25;5091890;28;20176;-57
2022/10/09 20:09:55;;;;;;;18.60;17.10;;;;;;;11.03;100.00;96882.31;5087740;28;20173;-58
2022/10/09 20:12:21;;;;;;;9.93;8.93;;;;;;;11.06;100.00;96879.22;5091495;28;20165;-56
2022/10/09 20:14:46;;;;;;;9.73;8.87;;;;;;;11.11;100.00;96887.22;5092106;28;20196;-53
2022/10/09 20:17:12;;;;;;;13.47;11.43;;;;;;;11.31;100.00;96888.72;5076136;28;20181;-57
2022/10/09 20:19:37;;;;;;;16.37;14.97;;;;;;;11.29;100.00;96888.94;5085949;28;20177;-57
2022/10/09 20:22:03;;;;;;;19.70;18.50;;;;;;;11.32;100.00;96887.66;5081195;28;20206;-56
2022/10/09 20:24:28;;;;;;;17.00;15.80;;;;;;;11.31;100.00;96883.47;5090410;28;20515;-58
2022/10/09 20:26:54;;;;;;;11.50;10.50;;;;;;;11.47;100.00;96882.78;5076111;28;20639;-56
2022/10/09 20:29:19;;;;;;;10.50;9.70;;;;;;;11.52;100.00;96883.69;5075729;28;20272;-56
2022/10/09 20:31:47;;;;;;;12.03;11.10;;;;;;;11.40;100.00;96882.09;5091885;28;20176;-57
2022/10/09 20:34:14;;;;;;;21.63;20.03;;;;;;;11.49;100.00;96881.50;5074886;28;20251;-57
2022/10/09 20:36:40;;;;;;;28.50;26.60;;;;;;;11.54;100.00;96886.06;5069164;28;20208;-58
2022/10/09 20:39:09;;;;;;;30.23;28.10;;;;;;;11.58;100.00;96885.41;5057375;28;20185;-57
2022/10/09 20:41:35;;;;;;;18.97;17.83;;;;;;;11.68;100.00;96882.97;5053114;28;20182;-54
2022/10/09 20:44:02;;;;;;;21.70;20.10;;;;;;;11.73;100.00;96882.31;5072061;28;20173;-54
2022/10/09 20:46:30;;;;;;;18.60;17.40;;;;;;;11.56;100.00;96876.94;5063602;28;20289;-56
2022/10/09 20:48:56;;;;;;;14.77;13.57;;;;;;;11.49;100.00;96878.88;5064341;28;20234;-55
2022/10/09 20:51:22;;;;;;;10.90;10.03;;;;;;;11.52;100.00;96875.81;5070995;28;20220;-58
2022/10/09 20:54:01;;;;;;;12.70;11.80;;;;;;;11.64;100.00;96884.47;5051738;28;20241;-58
2022/10/09 20:56:30;;;;;;;19.87;17.97;;;;;;;11.64;100.00;96871.34;5066092;28;20206;-58
2022/10/09 20:58:56;;;;;;;29.40;27.37;;;;;;;11.67;100.00;96875.31;5055685;28;20192;-58
2022/10/09 21:01:22;;;;;;;32.97;30.77;;;;;;;11.79;100.00;96876.13;5070258;28;20192;-53
2022/10/09 21:03:48;;;;;;;29.80;27.83;;;;;;;11.83;100.00;96874.63;5075080;28;20540;-54
2022/10/09 21:06:16;;;;;;;31.93;29.97;;;;;;;11.79;100.00;96862.19;5063839;28;20210;-55
2022/10/09 21:08:42;;;;;;;16.53;15.33;;;;;;;11.70;100.00;96877.50;5055130;28;20295;-54
2022/10/09 21:11:10;;;;;;;9.33;8.63;;;;;;;11.72;100.00;96872.00;5061082;28;20605;-53
2022/10/09 21:13:36;;;;;;;10.80;9.47;;;;;;;11.67;100.00;96877.94;5074647;28;20228;-54
2022/10/09 21:16:10;;;;;;;10.23;9.17;;;;;;;11.73;100.00;96868.34;5064217;28;20473;-54
2022/10/09 21:18:37;;;;;;;11.33;10.17;;;;;;;11.77;100.00;96875.56;5066193;28;20595;-53
2022/10/09 21:21:09;;;;;;;10.40;9.60;;;;;;;11.62;100.00;96878.66;5066899;28;20193;-55
2022/10/09 21:23:35;;;;;;;9.93;9.30;;;;;;;11.68;100.00;96876.91;5065562;28;20200;-54
2022/10/09 21:26:01;;;;;;;9.63;8.83;;;;;;;11.81;100.00;96874.09;5055344;28;20210;-53
2022/10/09 21:28:27;;;;;;;12.97;11.97;;;;;;;11.84;100.00;96875.44;5061546;28;20200;-51
2022/10/09 21:30:53;;;;;;;20.47;19.07;;;;;;;11.86;100.00;96874.19;5061099;28;20270;-56
2022/10/09 21:33:18;;;;;;;29.57;27.50;;;;;;;11.83;100.00;96879.88;5065759;28;20244;-61
2022/10/09 21:35:47;;;;;;;30.10;28.03;;;;;;;11.93;100.00;96874.03;5083724;28;20200;-56
2022/10/09 21:38:16;;;;;;;31.77;29.73;;;;;;;11.96;100.00;96876.22;5095647;28;20176;-57
2022/10/09 21:40:42;;;;;;;32.50;30.57;;;;;;;11.99;100.00;96880.97;5095353;28;20257;-58
2022/10/09 21:43:09;;;;;;;28.30;26.27;;;;;;;11.91;100.00;96871.66;5095398;28;20539;-55
2022/10/09 21:45:35;;;;;;;24.07;22.50;;;;;;;11.91;100.00;96868.22;5088110;28;20205;-56
2022/10/09 21:48:00;;;;;;;13.30;12.30;;;;;;;11.87;100.00;96869.72;5075149;28;20177;-58
2022/10/09 21:50:26;;;;;;;12.00;11.00;;;;;;;11.81;100.00;96862.78;5083652;28;20656;-58
2022/10/09 21:52:51;;;;;;;10.37;9.67;;;;;;;11.74;100.00;96862.09;5095290;28;20566;-56
2022/10/09 21:55:16;;;;;;;12.03;11.17;;;;;;;11.81;100.00;96866.22;5082698;28;20295;-58
2022/10/09 21:57:42;;;;;;;12.90;11.90;;;;;;;11.85;100.00;96867.34;5094875;28;20226;-56
2022/10/09 22:00:09;;;;;;;17.47;15.77;;;;;;;11.80;100.00;96867.22;5095336;28;20171;-58
2022/10/09 22:02:34;;;;;;;18.70;17.20;;;;;;;11.79;100.00;96859.56;5094970;28;20222;-58
2022/10/09 22:05:00;;;;;;;19.93;18.27;;;;;;;11.79;100.00;96865.63;5093516;28;20208;-56
2022/10/09 22:07:27;;;;;;;18.47;17.13;;;;;;;11.85;100.00;96863.91;5088194;28;20227;-57
2022/10/09 22:09:52;;;;;;;16.37;15.27;;;;;;;11.86;100.00;96862.88;5074632;28;20234;-59
2022/10/09 22:12:18;;;;;;;16.97;15.77;;;;;;;11.81;100.00;96866.22;5093590;28;20169;-56
2022/10/09 22:14:43;;;;;;;15.70;14.60;;;;;;;11.88;100.00;96866.06;5094695;28;20681;-52
2022/10/09 22:17:09;;;;;;;16.13;14.83;;;;;;;11.91;100.00;96865.59;5092780;28;20467;-54
2022/10/09 22:19:34;;;;;;;15.37;14.17;;;;;;;11.85;100.00;96862.06;5094347;28;20173;-56
2022/10/09 22:22:00;;;;;;;12.50;11.27;;;;;;;11.66;100.00;96858.78;5081141;28;20188;-57
2022/10/09 22:24:25;;;;;;;10.80;9.77;;;;;;;11.70;100.00;96856.50;5074043;28;20188;-57
2022/10/09 22:26:51;;;;;;;12.03;9.83;;;;;;;11.48;100.00;96855.50;5086677;28;20209;-57
2022/10/09 22:29:16;;;;;;;11.17;10.10;;;;;;;11.35;100.00;96853.91;5087885;28;20264;-55
2022/10/09 22:31:42;;;;;;;11.43;10.23;;;;;;;11.57;100.00;96854.91;5074566;28;20189;-58
2022/10/09 22:34:08;;;;;;;12.97;11.77;;;;;;;11.55;100.00;96853.53;5090583;28;20324;-57
2022/10/09 22:36:33;;;;;;;18.50;16.73;;;;;;;11.43;100.00;96847.50;5094243;28;20544;-56
2022/10/09 22:39:02;;;;;;;15.30;14.10;;;;;;;11.44;100.00;96844.66;5094374;28;20173;-58
2022/10/09 22:41:29;;;;;;;14.47;13.07;;;;;;;11.38;100.00;96842.94;5093994;28;20180;-57
2022/10/09 22:43:57;;;;;;;14.00;12.90;;;;;;;11.37;100.00;96845.81;5090070;28;20563;-55
2022/10/09 22:46:25;;;;;;;12.83;11.77;;;;;;;11.22;100.00;96841.00;5082273;28;20254;-55
2022/10/09 22:48:51;;;;;;;14.27;13.17;;;;;;;11.19;100.00;96839.66;5094636;28;20545;-53
2022/10/09 22:51:18;;;;;;;17.20;15.83;;;;;;;11.13;100.00;96839.78;5084186;28;20184;-57
2022/10/09 22:53:45;;;;;;;21.10;19.73;;;;;;;11.12;100.00;96832.94;5073714;28;20201;-56
2022/10/09 22:56:13;;;;;;;21.90;20.17;;;;;;;11.13;100.00;96834.53;5080455;28;20200;-51
2022/10/09 22:58:39;;;;;;;18.83;17.43;;;;;;;10.99;100.00;96833.94;5077051;28;20252;-54
2022/10/09 23:01:10;;;;;;;20.37;18.97;;;;;;;10.88;100.00;96829.50;5093705;28;20264;-50
2022/10/09 23:03:36;;;;;;;21.27;19.77;;;;;;;10.95;100.00;96835.44;5092881;28;20641;-57
2022/10/09 23:06:19;;;;;;;22.53;20.83;;;;;;;10.98;100.00;96824.47;5092403;28;20213;-54
2022/10/09 23:08:47;;;;;;;19.63;18.07;;;;;;;10.98;100.00;96823.69;5085479;28;20177;-56
2022/10/09 23:11:13;;;;;;;17.27;15.83;;;;;;;10.83;100.00;96826.75;5074437;28;20540;-57
2022/10/09 23:13:39;;;;;;;16.30;14.90;;;;;;;10.77;100.00;96820.59;5075894;28;20211;-57
2022/10/09 23:16:08;;;;;;;16.43;15.07;;;;;;;10.69;100.00;96828.00;5091036;28;20737;-54
2022/10/09 23:18:34;;;;;;;15.93;14.73;;;;;;;10.67;100.00;96822.16;5072664;28;20177;-52
2022/10/09 23:21:04;;;;;;;15.27;13.83;;;;;;;10.69;100.00;96822.75;5085907;28;20184;-53
2022/10/09 23:23:30;;;;;;;15.70;14.40;;;;;;;10.64;100.00;96820.81;5092619;28;20251;-55
2022/10/09 23:25:56;;;;;;;17.10;15.70;;;;;;;10.67;100.00;96816.94;5076180;28;20611;-53
2022/10/09 23:28:21;;;;;;;16.77;15.57;;;;;;;10.60;100.00;96819.66;5093670;28;20551;-58
2022/10/09 23:30:47;;;;;;;15.23;14.00;;;;;;;10.64;100.00;96820.81;5093182;28;20184;-56
2022/10/09 23:33:13;;;;;;;16.33;14.93;;;;;;;10.67;100.00;96822.97;5088777;28;20308;-57
2022/10/09 23:35:42;;;;;;;15.47;14.37;;;;;;;10.80;100.00;96825.41;5083396;28;20686;-57
2022/10/09 23:38:07;;;;;;;16.53;15.07;;;;;;;10.85;100.00;96822.09;5093091;28;20177;-57
2022/10/09 23:40:33;;;;;;;14.97;13.57;;;;;;;10.76;100.00;96829.47;5092430;28;20192;-58
2022/10/09 23:42:58;;;;;;;16.93;15.50;;;;;;;10.68;100.00;96818.53;5070659;28;20272;-54
2022/10/09 23:45:24;;;;;;;15.57;14.37;;;;;;;10.67;100.00;96819.56;5073070;28;20208;-58
2022/10/09 23:47:49;;;;;;;17.07;15.57;;;;;;;10.56;100.00;96828.19;5080219;28;20181;-58